createdAt,value
2018-09-22T00:00:56.299Z,549.2
2018-09-22T00:01:58.744Z,549
2018-09-22T00:03:01.192Z,548.8
2018-09-22T00:04:03.383Z,548.9
2018-09-22T00:05:05.546Z,548.7
2018-09-22T00:06:07.984Z,548.9
2018-09-22T00:07:10.417Z,548.7
2018-09-22T00:08:12.844Z,547.9
2018-09-22T00:09:15.327Z,547.7
2018-09-22T00:10:17.765Z,547.5
2018-09-22T00:11:19.915Z,547.3
2018-09-22T00:12:22.356Z,547.4
2018-09-22T00:13:24.786Z,547.3
2018-09-22T00:14:27.258Z,547.5
2018-09-22T00:15:29.693Z,547.3
2018-09-22T00:16:32.127Z,546.9
2018-09-22T00:17:34.259Z,546.6
2018-09-22T00:18:36.690Z,546.8
2018-09-22T00:19:39.124Z,547.3
2018-09-22T00:20:41.607Z,547.2
2018-09-22T00:21:44.220Z,546.6
2018-09-22T00:22:46.665Z,546.4
2018-09-22T00:23:49.095Z,546.6
2018-09-22T00:24:51.528Z,546.7
2018-09-22T00:25:53.662Z,547.3
2018-09-22T00:26:56.104Z,547.1
2018-09-22T00:27:58.537Z,546.8
2018-09-22T00:29:00.970Z,546.6
2018-09-22T00:30:03.402Z,546.5
2018-09-22T00:31:05.546Z,546.5
2018-09-22T00:32:07.706Z,546.3
2018-09-22T00:33:09.876Z,546.1
2018-09-22T00:34:12.307Z,546.7
2018-09-22T00:35:14.741Z,547.6
2018-09-22T00:36:17.173Z,548
2018-09-22T00:37:19.604Z,547.8
2018-09-22T00:38:22.042Z,547.7
2018-09-22T00:39:24.477Z,547.4
2018-09-22T00:40:26.917Z,547.2
2018-09-22T00:41:29.346Z,547
2018-09-22T00:42:31.779Z,547.1
2018-09-22T00:43:34.214Z,546.4
2018-09-22T00:44:36.653Z,546.4
2018-09-22T00:45:39.088Z,546.3
2018-09-22T00:46:41.524Z,546.6
2018-09-22T00:47:43.958Z,547
2018-09-22T00:48:46.383Z,547.3
2018-09-22T00:49:48.815Z,546.6
2018-09-22T00:50:50.992Z,546.8
2018-09-22T00:51:53.423Z,547
2018-09-22T00:52:55.853Z,546.9
2018-09-22T00:53:58.284Z,546.7
2018-09-22T00:55:00.436Z,546.8
2018-09-22T00:56:02.867Z,546.7
2018-09-22T00:57:05.042Z,546.3
2018-09-22T00:58:07.474Z,546.4
2018-09-22T00:59:09.634Z,546.5
2018-09-22T01:00:12.081Z,546.5
2018-09-22T01:01:14.539Z,545.9
2018-09-22T01:02:16.989Z,545.7
2018-09-22T01:03:19.414Z,545.1
2018-09-22T01:04:21.843Z,545.5
2018-09-22T01:05:24.265Z,545.6
2018-09-22T01:06:26.695Z,545.7
2018-09-22T01:07:29.126Z,545.1
2018-09-22T01:08:31.557Z,545.9
2018-09-22T01:09:33.981Z,545.1
2018-09-22T01:10:36.414Z,545.3
2018-09-22T01:11:38.849Z,545.5
2018-09-22T01:12:41.281Z,545.1
2018-09-22T01:13:43.711Z,545.4
2018-09-22T01:14:46.139Z,545.2
2018-09-22T01:15:48.751Z,545.1
2018-09-22T01:16:50.638Z,545.1
2018-09-22T01:17:53.114Z,544.8
2018-09-22T01:18:55.530Z,545.2
2018-09-22T01:19:57.967Z,545.3
2018-09-22T01:21:00.397Z,545
2018-09-22T01:22:02.837Z,545.3
2018-09-22T01:23:05.266Z,545
2018-09-22T01:24:07.710Z,544.7
2018-09-22T01:25:09.880Z,544.7
2018-09-22T01:26:12.306Z,544.7
2018-09-22T01:27:14.754Z,544.3
2018-09-22T01:28:17.197Z,543.9
2018-09-22T01:29:19.628Z,543.1
2018-09-22T01:30:22.049Z,543.1
2018-09-22T01:31:24.497Z,542.8
2018-09-22T01:32:26.933Z,543
2018-09-22T01:33:29.099Z,543.2
2018-09-22T01:34:31.556Z,542.5
2018-09-22T01:35:33.981Z,543.1
2018-09-22T01:36:36.410Z,542.8
2018-09-22T01:37:38.849Z,543
2018-09-22T01:38:41.281Z,543.5
2018-09-22T01:39:43.708Z,543.5
2018-09-22T01:40:46.144Z,543.4
2018-09-22T01:41:48.311Z,543.4
2018-09-22T01:42:50.737Z,543.5
2018-09-22T01:43:52.864Z,543.4
2018-09-22T01:44:55.301Z,543.3
2018-09-22T01:45:57.717Z,543.3
2018-09-22T01:46:59.906Z,543.4
2018-09-22T01:48:02.327Z,543.6
2018-09-22T01:49:04.482Z,543
2018-09-22T01:50:06.906Z,542.5
2018-09-22T01:51:09.337Z,542.5
2018-09-22T01:52:11.779Z,542.8
2018-09-22T01:53:14.209Z,542.2
2018-09-22T01:54:16.640Z,542.4
2018-09-22T01:55:19.080Z,542.6
2018-09-22T01:56:21.512Z,542.3
2018-09-22T01:57:23.964Z,542
2018-09-22T01:58:26.397Z,542.2
2018-09-22T01:59:28.827Z,542.5
2018-09-22T02:00:30.961Z,542.4
2018-09-22T02:01:33.394Z,542.6
2018-09-22T02:02:35.829Z,542.6
2018-09-22T02:03:38.284Z,542.2
2018-09-22T02:04:40.697Z,541.8
2018-09-22T02:05:42.879Z,541.2
2018-09-22T02:06:45.307Z,541.7
2018-09-22T02:07:47.735Z,542
2018-09-22T02:08:50.169Z,542
2018-09-22T02:09:52.594Z,541.4
2018-09-22T02:10:55.025Z,541.2
2018-09-22T02:11:57.469Z,541.4
2018-09-22T02:12:59.903Z,540.6
2018-09-22T02:14:02.337Z,540
2018-09-22T02:15:04.767Z,540
2018-09-22T02:16:06.650Z,540.2
2018-09-22T02:17:09.070Z,540.2
2018-09-22T02:18:11.496Z,540.3
2018-09-22T02:19:13.926Z,539.9
2018-09-22T02:20:16.356Z,540.3
2018-09-22T02:21:18.786Z,540.9
2018-09-22T02:22:20.931Z,541.3
2018-09-22T02:23:23.372Z,540.6
2018-09-22T02:24:25.805Z,540.7
2018-09-22T02:25:28.246Z,540.8
2018-09-22T02:26:30.694Z,540.1
2018-09-22T02:27:33.127Z,540.1
2018-09-22T02:28:35.015Z,540.1
2018-09-22T02:29:37.459Z,540.2
2018-09-22T02:30:39.627Z,540.7
2018-09-22T02:31:42.058Z,540.8
2018-09-22T02:32:44.482Z,541
2018-09-22T02:33:46.911Z,540.4
2018-09-22T02:34:49.348Z,540.2
2018-09-22T02:35:51.776Z,540
2018-09-22T02:36:54.207Z,539.9
2018-09-22T02:37:56.358Z,540.1
2018-09-22T02:38:58.794Z,540.5
2018-09-22T02:40:01.218Z,540.2
2018-09-22T02:41:03.648Z,540
2018-09-22T02:42:06.084Z,539.6
2018-09-22T02:43:08.242Z,540.2
2018-09-22T02:44:10.682Z,540.7
2018-09-22T02:45:12.827Z,540.3
2018-09-22T02:46:15.257Z,539.8
2018-09-22T02:47:17.686Z,539.5
2018-09-22T02:48:20.131Z,539.9
2018-09-22T02:49:22.557Z,539.7
2018-09-22T02:50:24.987Z,539.2
2018-09-22T02:51:27.420Z,538.7
2018-09-22T02:52:29.582Z,538.3
2018-09-22T02:53:32.022Z,538.6
2018-09-22T02:54:34.444Z,539
2018-09-22T02:55:36.574Z,539
2018-09-22T02:56:39.006Z,539.3
2018-09-22T02:57:41.426Z,539.6
2018-09-22T02:58:43.859Z,539.8
2018-09-22T02:59:45.986Z,539.5
2018-09-22T03:00:48.428Z,539.1
2018-09-22T03:01:50.859Z,538.9
2018-09-22T03:02:53.287Z,538.6
2018-09-22T03:03:55.712Z,538.8
2018-09-22T03:04:58.146Z,538.8
2018-09-22T03:06:00.287Z,538.9
2018-09-22T03:07:02.725Z,539.6
2018-09-22T03:08:05.157Z,539.3
2018-09-22T03:09:07.601Z,539.8
2018-09-22T03:10:10.036Z,540.3
2018-09-22T03:11:12.452Z,540.7
2018-09-22T03:12:14.881Z,540.9
2018-09-22T03:13:17.325Z,540.7
2018-09-22T03:14:19.764Z,540.6
2018-09-22T03:15:22.544Z,540.5
2018-09-22T03:16:25.041Z,540.8
2018-09-22T03:17:27.508Z,541.3
2018-09-22T03:18:29.943Z,540.8
2018-09-22T03:19:32.373Z,540.9
2018-09-22T03:20:34.807Z,540.2
2018-09-22T03:21:37.235Z,539.6
2018-09-22T03:22:39.668Z,539.6
2018-09-22T03:23:42.105Z,539.2
2018-09-22T03:24:44.544Z,539.3
2018-09-22T03:25:46.433Z,539.9
2018-09-22T03:26:48.868Z,539.9
2018-09-22T03:27:51.024Z,539.6
2018-09-22T03:28:53.457Z,539.6
2018-09-22T03:29:55.946Z,539.4
2018-09-22T03:30:58.368Z,539
2018-09-22T03:32:00.809Z,538.7
2018-09-22T03:33:03.240Z,539.1
2018-09-22T03:34:05.673Z,538.9
2018-09-22T03:35:08.137Z,538.3
2018-09-22T03:36:10.564Z,538
2018-09-22T03:37:12.729Z,537.5
2018-09-22T03:38:15.206Z,537.3
2018-09-22T03:39:17.642Z,537
2018-09-22T03:40:20.077Z,536.5
2018-09-22T03:41:22.226Z,536.4
2018-09-22T03:42:24.654Z,535.7
2018-09-22T03:43:27.086Z,535.9
2018-09-22T03:44:29.511Z,536.1
2018-09-22T03:45:31.960Z,536
2018-09-22T03:46:34.382Z,536
2018-09-22T03:47:36.833Z,536.5
2018-09-22T03:48:39.272Z,537.1
2018-09-22T03:49:41.707Z,537.7
2018-09-22T03:50:44.136Z,537.6
2018-09-22T03:51:46.554Z,538.1
2018-09-22T03:52:48.989Z,537.7
2018-09-22T03:53:51.427Z,537.6
2018-09-22T03:54:53.863Z,537.1
2018-09-22T03:55:56.293Z,536.6
2018-09-22T03:56:58.723Z,536.3
2018-09-22T03:58:01.167Z,535.6
2018-09-22T03:59:03.643Z,535.4
2018-09-22T04:00:06.076Z,535
2018-09-22T04:01:08.508Z,535.5
2018-09-22T04:02:10.945Z,535.8
2018-09-22T04:03:13.380Z,536.3
2018-09-22T04:04:15.813Z,536.7
2018-09-22T04:05:18.249Z,537.1
2018-09-22T04:06:20.690Z,537.2
2018-09-22T04:07:22.859Z,538.5
2018-09-22T04:08:25.293Z,538.3
2018-09-22T04:09:27.727Z,538.3
2018-09-22T04:10:30.161Z,538.6
2018-09-22T04:11:32.589Z,538.8
2018-09-22T04:12:35.025Z,539.1
2018-09-22T04:13:37.455Z,539.3
2018-09-22T04:14:39.891Z,539.3
2018-09-22T04:15:42.319Z,540
2018-09-22T04:16:44.745Z,539.9
2018-09-22T04:17:47.174Z,539.7
2018-09-22T04:18:49.594Z,539.3
2018-09-22T04:19:52.017Z,539.1
2018-09-22T04:20:54.190Z,539.3
2018-09-22T04:21:56.613Z,539.3
2018-09-22T04:22:59.054Z,539.1
2018-09-22T04:24:01.235Z,538.8
2018-09-22T04:25:03.671Z,538.7
2018-09-22T04:26:06.099Z,538.9
2018-09-22T04:27:08.535Z,538.4
2018-09-22T04:28:10.958Z,538.8
2018-09-22T04:29:12.827Z,538
2018-09-22T04:30:14.977Z,538.2
2018-09-22T04:31:17.424Z,538.5
2018-09-22T04:32:19.854Z,538.6
2018-09-22T04:33:22.727Z,538.3
2018-09-22T04:34:25.166Z,538.1
2018-09-22T04:35:27.327Z,537.8
2018-09-22T04:36:29.486Z,537.5
2018-09-22T04:37:31.628Z,538.1
2018-09-22T04:38:34.067Z,538.5
2018-09-22T04:39:36.499Z,538.8
2018-09-22T04:40:38.928Z,538.1
2018-09-22T04:41:41.373Z,538
2018-09-22T04:42:43.812Z,537.7
2018-09-22T04:43:45.979Z,538.1
2018-09-22T04:44:48.411Z,538.3
2018-09-22T04:45:50.844Z,537.7
2018-09-22T04:46:53.276Z,537.2
2018-09-22T04:47:55.708Z,536.9
2018-09-22T04:48:58.144Z,536.7
2018-09-22T04:50:00.562Z,536.5
2018-09-22T04:51:02.992Z,536.7
2018-09-22T04:52:05.427Z,537
2018-09-22T04:53:07.861Z,536.9
2018-09-22T04:54:10.309Z,536.7
2018-09-22T04:55:12.728Z,536.4
2018-09-22T04:56:15.165Z,536.6
2018-09-22T04:57:17.598Z,536.3
2018-09-22T04:58:20.031Z,536.6
2018-09-22T04:59:22.186Z,536.2
2018-09-22T05:00:24.630Z,536.5
2018-09-22T05:01:27.054Z,536.1
2018-09-22T05:02:29.484Z,536.3
2018-09-22T05:03:31.914Z,536
2018-09-22T05:04:34.343Z,535.5
2018-09-22T05:05:36.777Z,535
2018-09-22T05:06:39.208Z,534.8
2018-09-22T05:07:41.364Z,534.2
2018-09-22T05:08:43.542Z,534.5
2018-09-22T05:09:45.981Z,534.1
2018-09-22T05:10:48.409Z,533.8
2018-09-22T05:11:50.850Z,534.1
2018-09-22T05:12:53.287Z,533.9
2018-09-22T05:13:55.727Z,533.9
2018-09-22T05:14:58.155Z,534.2
2018-09-22T05:16:00.338Z,534.1
2018-09-22T05:17:03.031Z,534.1
2018-09-22T05:18:05.244Z,534.1
2018-09-22T05:19:07.680Z,534.7
2018-09-22T05:20:10.117Z,535.3
2018-09-22T05:21:12.556Z,535.3
2018-09-22T05:22:14.993Z,535.4
2018-09-22T05:23:17.147Z,535.6
2018-09-22T05:24:19.584Z,535.5
2018-09-22T05:25:22.016Z,535.6
2018-09-22T05:26:24.170Z,535.5
2018-09-22T05:27:26.599Z,535.6
2018-09-22T05:28:28.762Z,535.9
2018-09-22T05:29:31.199Z,535.8
2018-09-22T05:30:33.364Z,535.7
2018-09-22T05:31:35.799Z,535.6
2018-09-22T05:32:37.937Z,535.8
2018-09-22T05:33:40.377Z,535.7
2018-09-22T05:34:42.817Z,535.7
2018-09-22T05:35:45.250Z,536.3
2018-09-22T05:36:47.393Z,536
2018-09-22T05:37:49.829Z,536
2018-09-22T05:38:52.249Z,536.3
2018-09-22T05:39:54.683Z,536.1
2018-09-22T05:40:57.124Z,536.1
2018-09-22T05:41:59.555Z,536.1
2018-09-22T05:43:01.987Z,536.3
2018-09-22T05:44:04.427Z,536.7
2018-09-22T05:45:06.588Z,536.5
2018-09-22T05:46:08.734Z,537
2018-09-22T05:47:10.876Z,536.7
2018-09-22T05:48:13.325Z,536.4
2018-09-22T05:49:15.755Z,536.2
2018-09-22T05:50:18.193Z,536.2
2018-09-22T05:51:20.638Z,535.4
2018-09-22T05:52:23.075Z,535.1
2018-09-22T05:53:25.526Z,534.9
2018-09-22T05:54:27.961Z,535.2
2018-09-22T05:55:30.388Z,535.6
2018-09-22T05:56:32.827Z,535.8
2018-09-22T05:57:35.259Z,535.7
2018-09-22T05:58:37.127Z,535.4
2018-09-22T05:59:39.554Z,535.1
2018-09-22T06:00:41.977Z,535.1
2018-09-22T06:01:44.428Z,535.1
2018-09-22T06:02:46.857Z,535.3
2018-09-22T06:03:50.371Z,536
2018-09-22T06:04:52.886Z,535.9
2018-09-22T06:05:55.321Z,535.7
2018-09-22T06:06:57.766Z,535.9
2018-09-22T06:08:00.240Z,535.9
2018-09-22T06:09:02.668Z,535.8
2018-09-22T06:10:05.098Z,535.2
2018-09-22T06:11:07.536Z,535.4
2018-09-22T06:12:09.988Z,535.8
2018-09-22T06:13:12.419Z,535.5
2018-09-22T06:14:14.573Z,535.7
2018-09-22T06:15:17.007Z,535.5
2018-09-22T06:16:19.463Z,535.8
2018-09-22T06:17:21.905Z,535.9
2018-09-22T06:18:24.348Z,536.4
2018-09-22T06:19:26.768Z,536.4
2018-09-22T06:20:29.213Z,536.4
2018-09-22T06:21:31.708Z,536.1
2018-09-22T06:22:34.189Z,535.8
2018-09-22T06:23:37.121Z,535.7
2018-09-22T06:24:39.616Z,535.7
2018-09-22T06:25:42.058Z,535.5
2018-09-22T06:26:44.505Z,535.2
2018-09-22T06:27:46.937Z,535.1
2018-09-22T06:28:49.825Z,535
2018-09-22T06:29:51.905Z,534.8
2018-09-22T06:30:54.074Z,535.1
2018-09-22T06:31:56.519Z,535.3
2018-09-22T06:32:58.968Z,535.5
2018-09-22T06:34:01.396Z,535.3
2018-09-22T06:35:03.832Z,534.9
2018-09-22T06:36:06.262Z,534.6
2018-09-22T06:37:08.696Z,534.6
2018-09-22T06:38:11.134Z,534.5
2018-09-22T06:39:13.588Z,534.3
2018-09-22T06:40:16.023Z,534.5
2018-09-22T06:41:18.465Z,535
2018-09-22T06:42:20.902Z,534.9
2018-09-22T06:43:23.353Z,534.8
2018-09-22T06:44:25.782Z,534.6
2018-09-22T06:45:28.232Z,534.4
2018-09-22T06:46:30.400Z,534.3
2018-09-22T06:47:32.832Z,534.6
2018-09-22T06:48:35.275Z,534.6
2018-09-22T06:49:37.705Z,534.6
2018-09-22T06:50:40.147Z,533.7
2018-09-22T06:51:42.580Z,533.8
2018-09-22T06:52:45.007Z,533.2
2018-09-22T06:53:47.477Z,533.5
2018-09-22T06:54:50.275Z,533.4
2018-09-22T06:55:52.770Z,533.3
2018-09-22T06:56:55.196Z,533.1
2018-09-22T06:59:06.268Z,533.7
2018-09-22T07:00:08.722Z,534
2018-09-22T07:01:11.154Z,533.5
2018-09-22T07:02:13.286Z,533
2018-09-22T07:03:15.728Z,533.1
2018-09-22T07:04:17.899Z,533
2018-09-22T07:05:20.324Z,532.9
2018-09-22T07:06:23.157Z,533.3
2018-09-22T07:07:25.603Z,533.3
2018-09-22T07:08:27.810Z,534
2018-09-22T07:09:30.233Z,533.7
2018-09-22T07:10:32.668Z,533.3
2018-09-22T07:11:34.839Z,533.1
2018-09-22T07:12:36.999Z,532.9
2018-09-22T07:13:39.246Z,532.4
2018-09-22T07:14:41.681Z,532.8
2018-09-22T07:15:44.127Z,531.9
2018-09-22T07:16:46.562Z,532
2018-09-22T07:17:48.729Z,532.4
2018-09-22T07:18:51.173Z,532.3
2018-09-22T07:19:53.610Z,532.2
2018-09-22T07:20:56.052Z,532.7
2018-09-22T07:21:58.487Z,532.4
2018-09-22T07:23:00.955Z,532.3
2018-09-22T07:24:03.398Z,532.4
2018-09-22T07:25:05.841Z,532.3
2018-09-22T07:26:08.285Z,532.2
2018-09-22T07:27:10.461Z,532
2018-09-22T07:28:12.912Z,532.1
2018-09-22T07:29:15.334Z,532
2018-09-22T07:30:17.767Z,532
2018-09-22T07:31:20.208Z,532.5
2018-09-22T07:32:22.653Z,532.2
2018-09-22T07:33:23.978Z,532.3
2018-09-22T07:34:26.429Z,532.1
2018-09-22T07:35:28.585Z,531.8
2018-09-22T07:36:30.727Z,531.9
2018-09-22T07:37:33.194Z,531.6
2018-09-22T07:38:35.627Z,531.6
2018-09-22T07:39:37.786Z,531
2018-09-22T07:40:40.242Z,531.1
2018-09-22T07:41:42.681Z,531.5
2018-09-22T07:42:45.121Z,531.3
2018-09-22T07:43:47.577Z,531.6
2018-09-22T07:44:50.005Z,531.3
2018-09-22T07:45:53.162Z,531.5
2018-09-22T07:46:55.678Z,531.1
2018-09-22T07:47:57.839Z,530.7
2018-09-22T07:49:00.286Z,530.7
2018-09-22T07:50:02.777Z,530.5
2018-09-22T07:51:05.221Z,530.3
2018-09-22T07:52:07.669Z,530
2018-09-22T07:53:10.165Z,529.8
2018-09-22T07:54:12.619Z,530.1
2018-09-22T07:55:15.047Z,530.3
2018-09-22T07:56:17.478Z,530.6
2018-09-22T07:57:20.079Z,530.9
2018-09-22T07:58:22.524Z,531
2018-09-22T07:59:24.950Z,531.1
2018-09-22T08:00:28.016Z,530.6
2018-09-22T08:01:30.480Z,531
2018-09-22T08:02:32.620Z,530.7
2018-09-22T08:03:35.050Z,530.5
2018-09-22T08:04:37.486Z,530.5
2018-09-22T08:05:39.927Z,529.9
2018-09-22T08:06:42.365Z,529.7
2018-09-22T08:07:44.840Z,529.6
2018-09-22T08:08:47.030Z,530
2018-09-22T08:09:49.498Z,530.1
2018-09-22T08:10:52.027Z,529.7
2018-09-22T08:11:54.477Z,529.9
2018-09-22T08:12:56.910Z,529.7
2018-09-22T08:13:59.350Z,529.1
2018-09-22T08:15:01.776Z,529.6
2018-09-22T08:16:04.236Z,529.9
2018-09-22T08:17:06.657Z,529.8
2018-09-22T08:18:09.126Z,530.3
2018-09-22T08:19:11.572Z,530.7
2018-09-22T08:20:14.016Z,530.4
2018-09-22T08:21:16.457Z,530.7
2018-09-22T08:22:18.921Z,530.2
2018-09-22T08:23:21.358Z,530.2
2018-09-22T08:24:23.818Z,529.9
2018-09-22T08:25:26.319Z,529.6
2018-09-22T08:26:28.755Z,529.3
2018-09-22T08:27:31.185Z,529.1
2018-09-22T08:28:33.627Z,529.2
2018-09-22T08:29:36.069Z,529.3
2018-09-22T08:30:38.515Z,529.3
2018-09-22T08:31:40.962Z,528.9
2018-09-22T08:32:43.125Z,528.9
2018-09-22T08:33:45.310Z,529.6
2018-09-22T08:34:47.757Z,529.6
2018-09-22T08:35:50.218Z,530.1
2018-09-22T08:36:53.177Z,529.8
2018-09-22T08:37:55.620Z,530.3
2018-09-22T08:38:58.079Z,530.5
2018-09-22T08:40:00.255Z,530.6
2018-09-22T08:41:02.696Z,530.8
2018-09-22T08:42:05.128Z,531.1
2018-09-22T08:43:07.572Z,531
2018-09-22T08:44:10.019Z,530.6
2018-09-22T08:45:12.473Z,530.7
2018-09-22T08:46:14.628Z,530.9
2018-09-22T08:47:17.065Z,531
2018-09-22T08:48:19.511Z,530.2
2018-09-22T08:49:21.951Z,530.5
2018-09-22T08:50:24.452Z,530.6
2018-09-22T08:51:26.889Z,530.3
2018-09-22T08:52:29.307Z,530.1
2018-09-22T08:53:31.751Z,529.8
2018-09-22T08:54:34.178Z,530.2
2018-09-22T08:55:36.660Z,530.2
2018-09-22T08:56:38.819Z,529.8
2018-09-22T08:57:41.351Z,529.9
2018-09-22T08:58:43.515Z,529.9
2018-09-22T08:59:45.950Z,529.8
2018-09-22T09:00:48.394Z,530.3
2018-09-22T09:01:50.542Z,530.6
2018-09-22T09:02:52.700Z,530
2018-09-22T09:03:55.141Z,530.4
2018-09-22T09:04:57.815Z,530.6
2018-09-22T09:06:00.521Z,530.9
2018-09-22T09:07:02.956Z,531.5
2018-09-22T09:08:05.128Z,531.4
2018-09-22T09:09:07.551Z,530.7
2018-09-22T09:10:10.002Z,531.1
2018-09-22T09:11:12.164Z,531
2018-09-22T09:12:14.601Z,531.6
2018-09-22T09:13:17.140Z,531.7
2018-09-22T09:14:19.726Z,531.9
2018-09-22T09:15:22.160Z,531.6
2018-09-22T09:16:24.591Z,531.7
2018-09-22T09:17:27.033Z,531.8
2018-09-22T09:18:29.492Z,531.7
2018-09-22T09:19:31.935Z,532
2018-09-22T09:20:34.369Z,531.8
2018-09-22T09:21:36.533Z,532.4
2018-09-22T09:22:38.688Z,532.6
2018-09-22T09:23:41.117Z,533
2018-09-22T09:24:43.574Z,532.6
2018-09-22T09:25:46.023Z,532.5
2018-09-22T09:26:48.450Z,532.1
2018-09-22T09:27:50.881Z,532.6
2018-09-22T09:28:53.314Z,532.7
2018-09-22T09:29:55.737Z,533.1
2018-09-22T09:30:58.191Z,533.2
2018-09-22T09:32:00.619Z,533.5
2018-09-22T09:33:02.751Z,533.5
2018-09-22T09:34:05.189Z,533.5
2018-09-22T09:35:07.618Z,533.6
2018-09-22T09:36:10.065Z,533.6
2018-09-22T09:37:12.489Z,533.5
2018-09-22T09:38:14.927Z,533.2
2018-09-22T09:39:17.398Z,533.3
2018-09-22T09:40:19.857Z,533.1
2018-09-22T09:41:22.293Z,532.7
2018-09-22T09:42:24.729Z,532.7
2018-09-22T09:43:27.662Z,532.6
2018-09-22T09:44:30.116Z,532.3
2018-09-22T09:45:32.558Z,532.2
2018-09-22T09:46:34.990Z,532.3
2018-09-22T09:47:37.419Z,531.8
2018-09-22T09:48:39.849Z,532.4
2018-09-22T09:49:42.275Z,532.1
2018-09-22T09:50:44.438Z,532.2
2018-09-22T09:51:46.873Z,532.7
2018-09-22T09:52:49.303Z,532.6
2018-09-22T09:53:51.472Z,532.6
2018-09-22T09:54:54.291Z,532.6
2018-09-22T09:55:56.765Z,532.7
2018-09-22T09:56:59.205Z,532.7
2018-09-22T09:58:01.648Z,533.3
2018-09-22T09:59:04.086Z,533.2
2018-09-22T10:00:06.519Z,533.6
2018-09-22T10:01:08.688Z,533.7
2018-09-22T10:02:10.890Z,533.6
2018-09-22T10:03:13.341Z,534.3
2018-09-22T10:04:15.953Z,534
2018-09-22T10:05:18.389Z,533.6
2018-09-22T10:06:20.835Z,533.7
2018-09-22T10:07:23.274Z,533.7
2018-09-22T10:08:25.707Z,533.4
2018-09-22T10:09:27.878Z,533
2018-09-22T10:10:30.314Z,532.9
2018-09-22T10:11:32.752Z,532.8
2018-09-22T10:12:35.177Z,533.3
2018-09-22T10:13:37.609Z,533
2018-09-22T10:14:40.039Z,533.1
2018-09-22T10:15:42.475Z,533.6
2018-09-22T10:16:44.904Z,533.7
2018-09-22T10:17:47.347Z,534
2018-09-22T10:18:49.784Z,534.2
2018-09-22T10:19:51.931Z,534.2
2018-09-22T10:20:54.358Z,534.4
2018-09-22T10:21:56.789Z,534.1
2018-09-22T10:22:59.220Z,533.8
2018-09-22T10:24:01.685Z,533.9
2018-09-22T10:25:03.844Z,533.6
2018-09-22T10:26:06.299Z,533.9
2018-09-22T10:27:08.448Z,534.1
2018-09-22T10:28:11.234Z,534.5
2018-09-22T10:29:13.703Z,534.7
2018-09-22T10:30:15.868Z,534.8
2018-09-22T10:31:18.309Z,534.9
2018-09-22T10:32:20.752Z,534.5
2018-09-22T10:33:23.179Z,534.1
2018-09-22T10:34:25.606Z,533.9
2018-09-22T10:35:28.059Z,534.2
2018-09-22T10:36:30.488Z,533.9
2018-09-22T10:37:32.931Z,534
2018-09-22T10:38:35.361Z,534.5
2018-09-22T10:39:37.925Z,535
2018-09-22T10:40:40.428Z,535.2
2018-09-22T10:41:42.856Z,535.3
2018-09-22T10:42:45.289Z,535.1
2018-09-22T10:43:47.724Z,535.5
2018-09-22T10:44:50.167Z,535.5
2018-09-22T10:45:52.349Z,535.9
2018-09-22T10:46:54.804Z,536
2018-09-22T10:47:56.954Z,536.5
2018-09-22T10:48:59.430Z,536.2
2018-09-22T10:50:01.932Z,536.2
2018-09-22T10:51:04.366Z,536.2
2018-09-22T10:52:06.799Z,536.4
2018-09-22T10:53:09.913Z,536.4
2018-09-22T10:54:12.335Z,536.6
2018-09-22T10:55:14.771Z,536.6
2018-09-22T10:56:17.218Z,536.8
2018-09-22T10:57:22.550Z,536.7
2018-09-22T10:58:25.070Z,536.8
2018-09-22T10:59:27.521Z,537.3
2018-09-22T11:00:29.969Z,537.4
2018-09-22T11:01:32.406Z,537.7
2018-09-22T11:02:34.790Z,537.7
2018-09-22T11:03:38.391Z,538.2
2018-09-22T11:04:40.950Z,538.5
2018-09-22T11:05:43.403Z,538.5
2018-09-22T11:06:45.840Z,538.7
2018-09-22T11:07:48.269Z,537.8
2018-09-22T11:08:50.710Z,537.9
2018-09-22T11:09:53.153Z,537.5
2018-09-22T11:10:55.580Z,537.8
2018-09-22T11:11:58.023Z,538.3
2018-09-22T11:13:00.455Z,538.2
2018-09-22T11:14:02.901Z,538.2
2018-09-22T11:15:05.335Z,538.1
2018-09-22T11:16:07.774Z,538.4
2018-09-22T11:17:10.201Z,538.7
2018-09-22T11:18:12.649Z,538.9
2018-09-22T11:19:15.082Z,539.3
2018-09-22T11:20:17.512Z,539.6
2018-09-22T11:21:19.666Z,539.6
2018-09-22T11:22:22.102Z,539.7
2018-09-22T11:23:24.541Z,540.3
2018-09-22T11:24:26.979Z,540.2
2018-09-22T11:25:29.411Z,540.6
2018-09-22T11:26:31.838Z,540.8
2018-09-22T11:27:34.269Z,540.3
2018-09-22T11:28:36.697Z,540.4
2018-09-22T11:29:39.143Z,540.6
2018-09-22T11:30:41.582Z,541
2018-09-22T11:31:44.035Z,541.1
2018-09-22T11:32:47.125Z,541.6
2018-09-22T11:33:49.677Z,541.9
2018-09-22T11:34:52.110Z,542.1
2018-09-22T11:35:54.535Z,542.3
2018-09-22T11:36:56.709Z,542.8
2018-09-22T11:37:59.171Z,542.6
2018-09-22T11:39:01.318Z,542.1
2018-09-22T11:40:03.765Z,541.9
2018-09-22T11:41:06.227Z,541.8
2018-09-22T11:42:08.668Z,541.7
2018-09-22T11:43:11.108Z,542.1
2018-09-22T11:44:13.544Z,542.1
2018-09-22T11:45:15.986Z,542
2018-09-22T11:46:18.623Z,542.2
2018-09-22T11:47:21.112Z,542
2018-09-22T11:48:23.265Z,542
2018-09-22T11:49:25.697Z,542.3
2018-09-22T11:50:28.134Z,542.3
2018-09-22T11:51:30.570Z,542.8
2018-09-22T11:52:32.997Z,542.8
2018-09-22T11:53:35.436Z,542.8
2018-09-22T11:54:37.613Z,542.9
2018-09-22T11:55:40.069Z,542.8
2018-09-22T11:56:42.498Z,542.8
2018-09-22T11:57:44.928Z,542.5
2018-09-22T11:58:47.366Z,543.2
2018-09-22T11:59:49.810Z,543
2018-09-22T12:00:52.246Z,542.7
2018-09-22T12:01:54.563Z,542.5
2018-09-22T12:02:57.010Z,542.5
2018-09-22T12:03:59.447Z,542
2018-09-22T12:05:01.905Z,542.5
2018-09-22T12:06:04.827Z,542.5
2018-09-22T12:07:07.338Z,542.9
2018-09-22T12:08:09.809Z,542.6
2018-09-22T12:09:12.251Z,542.3
2018-09-22T12:10:14.438Z,542
2018-09-22T12:11:16.866Z,542.6
2018-09-22T12:12:19.333Z,542.3
2018-09-22T12:13:21.781Z,542.7
2018-09-22T12:14:24.236Z,542.3
2018-09-22T12:15:26.667Z,542.3
2018-09-22T12:16:28.840Z,542.2
2018-09-22T12:17:30.994Z,542.3
2018-09-22T12:18:33.427Z,543
2018-09-22T12:19:35.871Z,543.3
2018-09-22T12:20:38.318Z,543.7
2018-09-22T12:21:40.765Z,544.2
2018-09-22T12:22:43.197Z,544.3
2018-09-22T12:23:45.644Z,544.7
2018-09-22T12:24:47.548Z,544.5
2018-09-22T12:25:49.979Z,545.1
2018-09-22T12:26:52.422Z,544.8
2018-09-22T12:27:54.888Z,544.9
2018-09-22T12:28:57.341Z,545.3
2018-09-22T12:29:59.511Z,545.5
2018-09-22T12:31:02.014Z,545.3
2018-09-22T12:32:05.015Z,545.5
2018-09-22T12:33:07.523Z,545.7
2018-09-22T12:34:09.669Z,545.9
2018-09-22T12:35:12.110Z,546.2
2018-09-22T12:36:14.269Z,546.4
2018-09-22T12:37:16.424Z,546.6
2018-09-22T12:38:18.856Z,547
2018-09-22T12:39:21.289Z,547.2
2018-09-22T12:40:23.719Z,547.6
2018-09-22T12:41:26.164Z,547.5
2018-09-22T12:42:28.329Z,547.4
2018-09-22T12:43:30.753Z,548.4
2018-09-22T12:44:33.206Z,548.1
2018-09-22T12:45:35.629Z,548.4
2018-09-22T12:46:38.069Z,548.6
2018-09-22T12:47:40.499Z,547.9
2018-09-22T12:48:42.653Z,548.3
2018-09-22T12:49:45.091Z,548.3
2018-09-22T12:50:47.517Z,548.6
2018-09-22T12:51:49.708Z,549.3
2018-09-22T12:52:52.134Z,549.7
2018-09-22T12:53:54.576Z,549.6
2018-09-22T12:54:56.998Z,549.4
2018-09-22T12:55:59.431Z,549.9
2018-09-22T12:57:01.867Z,550.7
2018-09-22T12:58:04.303Z,550.5
2018-09-22T12:59:06.736Z,550.6
2018-09-22T13:00:09.306Z,550.9
2018-09-22T13:01:11.745Z,550.9
2018-09-22T13:02:14.166Z,551
2018-09-22T13:03:16.639Z,550.9
2018-09-22T13:04:19.056Z,551.2
2018-09-22T13:05:21.229Z,550.7
2018-09-22T13:06:23.665Z,550.5
2018-09-22T13:07:26.109Z,550.6
2018-09-22T13:08:28.932Z,550.9
2018-09-22T13:09:31.372Z,551
2018-09-22T13:10:33.800Z,550.9
2018-09-22T13:11:36.256Z,551.5
2018-09-22T13:12:38.702Z,551.2
2018-09-22T13:13:41.060Z,550.6
2018-09-22T13:14:43.572Z,550.7
2018-09-22T13:15:45.992Z,550.9
2018-09-22T13:16:48.430Z,550.9
2018-09-22T13:17:50.872Z,551.3
2018-09-22T13:18:53.301Z,551.6
2018-09-22T13:19:55.735Z,551.1
2018-09-22T13:20:58.178Z,551.9
2018-09-22T13:22:00.801Z,551.5
2018-09-22T13:23:03.258Z,551.6
2018-09-22T13:24:05.641Z,551.8
2018-09-22T13:25:08.065Z,551.8
2018-09-22T13:26:10.512Z,551.9
2018-09-22T13:27:12.943Z,551.7
2018-09-22T13:28:15.388Z,551.8
2018-09-22T13:29:17.839Z,551.5
2018-09-22T13:30:20.266Z,551.2